Time,TemperatureF,DewpointF,PressureIn,WindDirection,WindDirectionDegrees,WindSpeedMPH,WindSpeedGustMPH,Humidity,HourlyPrecipIn,Conditions,Clouds,dailyrainin,SoftwareType,DateUTC
2013-03-25 00:00:00,51.7,26.2,29.79,SSW,202,0.0,0.0,37,0.00,CLR,,0.00,WeatherDisplay:10.37,2013-03-25 07:00:00,
2013-03-25 00:05:00,51.4,27.2,29.80,SSW,201,0.0,0.0,39,0.00,CLR,,0.00,WeatherDisplay:10.37,2013-03-25 07:05:00,
2013-03-25 00:10:00,51.4,26.6,29.80,SSW,201,0.0,0.0,38,0.00,CLR,,0.00,WeatherDisplay:10.37,2013-03-25 07:10:00,
2013-03-25 00:15:00,71.8,21.6,29.79,East,90,2.0,7.0,15,0.00,,,0.00,WeatherDisplay:10.37,2013-03-25 07:15:00,
2013-03-25 00:20:00,51.3,27.2,29.80,SSW,201,0.0,0.0,39,0.00,CLR,,0.00,WeatherDisplay:10.37,2013-03-25 07:20:00,
2013-03-25 00:25:00,71.8,21.6,29.79,East,90,2.0,7.0,15,0.00,,,0.00,WeatherDisplay:10.37,2013-03-25 07:25:00,
2013-03-25 00:30:00,50.5,27.1,29.79,SSW,201,0.0,0.0,40,0.00,CLR,,0.00,WeatherDisplay:10.37,2013-03-25 07:30:00,
2013-03-25 00:35:00,74.7,20.5,29.77,East,99,1.0,6.0,13,0.00,,,0.00,WeatherDisplay:10.37,2013-03-25 07:35:00,
2013-03-25 00:40:00,48.8,25.5,29.80,SSW,202,0.0,0.0,40,0.00,CLR,,0.00,WeatherDisplay:10.37,2013-03-25 07:40:00,
2013-03-25 00:45:00,74.7,20.5,29.77,ESE,112,1.0,6.0,13,0.00,,,0.00,WeatherDisplay:10.37,2013-03-25 07:45:00,
2013-03-25 00:50:00,48.6,24.7,29.79,SSW,201,0.0,0.0,39,0.00,CLR,,0.00,WeatherDisplay:10.37,2013-03-25 07:50:00,
2013-03-25 00:55:00,74.7,20.5,29.77,ESE,112,1.0,6.0,13,0.00,,,0.00,WeatherDisplay:10.37,2013-03-25 07:55:00,
2013-03-25 01:00:00,49.2,26.5,29.79,SSW,201,0.0,0.0,41,0.00,CLR,,0.00,WeatherDisplay:10.37,2013-03-25 08:00:00,
2013-03-25 01:05:00,75.1,20.9,29.75,South,169,3.0,10.0,13,0.00,,,0.00,WeatherDisplay:10.37,2013-03-25 08:05:00,
2013-03-25 01:10:00,48.8,26.1,29.79,SSW,201,0.0,0.0,41,0.00,CLR,,0.00,WeatherDisplay:10.37,2013-03-25 08:10:00,
2013-03-25 01:15:00,75.1,20.9,29.75,South,180,3.0,10.0,13,0.00,,,0.00,WeatherDisplay:10.37,2013-03-25 08:15:00,
2013-03-25 01:20:00,47.9,25.3,29.79,SSW,201,0.0,0.0,41,0.00,CLR,,0.00,WeatherDisplay:10.37,2013-03-25 08:20:00,
2013-03-25 01:25:00,75.1,20.9,29.75,South,180,3.0,10.0,13,0.00,,,0.00,WeatherDisplay:10.37,2013-03-25 08:25:00,
2013-03-25 01:30:00,46.7,24.2,29.80,SSW,201,0.0,0.0,41,0.00,CLR,,0.00,WeatherDisplay:10.37,2013-03-25 08:30:00,
2013-03-25 01:35:00,76.1,19.8,29.74,SE,146,2.0,9.0,12,0.00,,,0.00,WeatherDisplay:10.37,2013-03-25 08:35:00,
2013-03-25 01:40:00,46.2,23.8,29.79,SSW,201,0.0,0.0,41,0.00,CLR,,0.00,WeatherDisplay:10.37,2013-03-25 08:40:00,
2013-03-25 01:45:00,76.1,19.8,29.74,ESE,112,2.0,9.0,12,0.00,,,0.00,WeatherDisplay:10.37,2013-03-25 08:45:00,
2013-03-25 01:50:00,46.0,23.6,29.79,SSW,201,0.0,0.0,41,0.00,CLR,,0.00,WeatherDisplay:10.37,2013-03-25 08:50:00,
2013-03-25 01:55:00,76.1,19.8,29.74,ESE,112,2.0,9.0,12,0.00,,,0.00,WeatherDisplay:10.37,2013-03-25 08:55:00,
2013-03-25 02:00:00,46.5,24.0,29.79,SSW,201,0.0,0.0,41,0.00,CLR,,0.00,WeatherDisplay:10.37,2013-03-25 09:00:00,
2013-03-25 02:05:00,46.8,23.7,29.79,SSW,201,0.0,0.0,40,0.00,CLR,,0.00,WeatherDisplay:10.37,2013-03-25 09:05:00,
2013-03-25 02:10:00,47.3,23.6,29.79,SSW,201,0.0,0.0,39,0.00,CLR,,0.00,WeatherDisplay:10.37,2013-03-25 09:10:00,
2013-03-25 02:15:00,77.7,19.0,29.72,ESE,112,3.0,10.0,11,0.00,,,0.00,WeatherDisplay:10.37,2013-03-25 09:15:00,
2013-03-25 02:20:00,47.0,22.7,29.79,SSW,201,0.0,0.0,38,0.00,CLR,,0.00,WeatherDisplay:10.37,2013-03-25 09:20:00,
2013-03-25 02:25:00,77.7,19.0,29.72,ESE,112,3.0,10.0,11,0.00,,,0.00,WeatherDisplay:10.37,2013-03-25 09:25:00,
2013-03-25 02:30:00,46.4,22.1,29.79,SSW,201,0.0,0.0,38,0.00,CLR,,0.00,WeatherDisplay:10.37,2013-03-25 09:30:00,
2013-03-25 02:35:00,78.3,19.4,29.71,SE,126,3.0,13.0,11,0.00,,,0.00,WeatherDisplay:10.37,2013-03-25 09:35:00,
2013-03-25 02:40:00,45.8,21.6,29.79,SSW,201,0.0,0.0,38,0.00,CLR,,0.00,WeatherDisplay:10.37,2013-03-25 09:40:00,
2013-03-25 02:45:00,78.3,19.4,29.71,SE,135,3.0,13.0,11,0.00,,,0.00,WeatherDisplay:10.37,2013-03-25 09:45:00,
2013-03-25 02:50:00,46.1,21.9,29.79,SSW,202,0.0,0.0,38,0.00,CLR,,0.00,WeatherDisplay:10.37,2013-03-25 09:50:00,
2013-03-25 02:55:00,78.3,19.4,29.71,SE,135,3.0,13.0,11,0.00,,,0.00,WeatherDisplay:10.37,2013-03-25 09:55:00,
2013-03-25 03:00:00,46.1,21.9,29.79,SSW,201,0.0,0.0,38,0.00,CLR,,0.00,WeatherDisplay:10.37,2013-03-25 10:00:00,
2013-03-25 03:05:00,46.9,21.3,29.78,SSW,201,0.0,0.0,36,0.00,CLR,,0.00,WeatherDisplay:10.37,2013-03-25 10:05:00,
2013-03-25 03:10:00,47.1,21.5,29.78,SSW,201,0.0,1.0,36,0.00,CLR,,0.00,WeatherDisplay:10.37,2013-03-25 10:10:00,
2013-03-25 03:15:00,77.6,18.9,29.70,SSW,202,5.0,14.0,11,0.00,,,0.00,WeatherDisplay:10.37,2013-03-25 10:15:00,
2013-03-25 03:20:00,46.7,21.1,29.78,SSW,201,2.0,4.0,36,0.00,CLR,,0.00,WeatherDisplay:10.37,2013-03-25 10:20:00,
2013-03-25 03:25:00,77.6,18.9,29.70,SSW,202,5.0,14.0,11,0.00,,,0.00,WeatherDisplay:10.37,2013-03-25 10:25:00,
2013-03-25 03:30:00,46.1,21.2,29.78,SSW,201,0.0,0.0,37,0.00,CLR,,0.00,WeatherDisplay:10.37,2013-03-25 10:30:00,
2013-03-25 03:40:00,45.4,21.9,29.78,SSW,202,0.0,3.0,39,0.00,CLR,,0.00,WeatherDisplay:10.37,2013-03-25 10:40:00,
2013-03-25 03:50:00,45.8,22.2,29.78,SSW,201,0.0,0.0,39,0.00,CLR,,0.00,WeatherDisplay:10.37,2013-03-25 10:50:00,
2013-03-25 04:00:00,46.7,21.1,29.78,SSW,201,0.0,0.0,36,0.00,CLR,,0.00,WeatherDisplay:10.37,2013-03-25 11:00:00,
2013-03-25 04:10:00,46.5,21.6,29.78,SSW,201,0.0,0.0,37,0.00,CLR,,0.00,WeatherDisplay:10.37,2013-03-25 11:10:00,
2013-03-25 04:20:00,46.4,22.1,29.78,SSW,201,0.0,0.0,38,0.00,CLR,,0.00,WeatherDisplay:10.37,2013-03-25 11:20:00,
2013-03-25 04:30:00,45.7,21.5,29.79,SSW,201,0.0,0.0,38,0.00,CLR,,0.00,WeatherDisplay:10.37,2013-03-25 11:30:00,
2013-03-25 04:40:00,45.7,22.7,29.79,SSW,201,0.0,0.0,40,0.00,CLR,,0.00,WeatherDisplay:10.37,2013-03-25 11:40:00,
2013-03-25 04:50:00,45.8,22.2,29.79,SSW,201,0.0,0.0,39,0.00,CLR,,0.00,WeatherDisplay:10.37,2013-03-25 11:50:00,
2013-03-25 05:00:00,47.4,23.0,29.79,SSW,202,1.0,2.0,38,0.00,CLR,,0.00,WeatherDisplay:10.37,2013-03-25 12:00:00,
2013-03-25 05:05:00,47.5,23.1,29.79,SSW,201,1.0,3.0,38,0.00,CLR,,0.00,WeatherDisplay:10.37,2013-03-25 12:05:00,
2013-03-25 05:10:00,47.7,23.3,29.79,SSW,201,2.0,3.0,38,0.00,CLR,,0.00,WeatherDisplay:10.37,2013-03-25 12:10:00,
2013-03-25 05:20:00,49.1,23.9,29.79,SSW,201,0.0,0.0,37,0.00,CLR,,0.00,WeatherDisplay:10.37,2013-03-25 12:20:00,
2013-03-25 05:30:00,48.9,23.7,29.79,SSW,201,0.0,0.0,37,0.00,CLR,,0.00,WeatherDisplay:10.37,2013-03-25 12:30:00,
2013-03-25 05:40:00,47.9,23.4,29.80,SSW,201,2.0,3.0,38,0.00,CLR,,0.00,WeatherDisplay:10.37,2013-03-25 12:40:00,
2013-03-25 05:50:00,47.8,24.0,29.80,SSW,201,0.0,0.0,39,0.00,CLR,,0.00,WeatherDisplay:10.37,2013-03-25 12:50:00,
2013-03-25 06:00:00,48.0,23.6,29.80,SSW,201,1.0,3.0,38,0.00,CLR,,0.00,WeatherDisplay:10.37,2013-03-25 13:00:00,
2013-03-25 06:05:00,47.9,23.5,29.80,SSW,201,0.0,1.0,38,0.00,CLR,,0.00,WeatherDisplay:10.37,2013-03-25 13:05:00,
2013-03-25 06:10:00,47.9,23.4,29.80,SSW,201,2.0,3.0,38,0.00,CLR,,0.00,WeatherDisplay:10.37,2013-03-25 13:10:00,
2013-03-25 06:20:00,47.7,23.9,29.80,SSW,201,1.0,3.0,39,0.00,CLR,,0.00,WeatherDisplay:10.37,2013-03-25 13:20:00,
2013-03-25 06:30:00,47.7,23.9,29.81,SSW,202,2.0,3.0,39,0.00,CLR,,0.00,WeatherDisplay:10.37,2013-03-25 13:30:00,
2013-03-25 06:40:00,47.6,22.6,29.81,SSW,201,2.0,4.0,37,0.00,CLR,,0.00,WeatherDisplay:10.37,2013-03-25 13:40:00,
2013-03-25 06:50:00,48.2,21.8,29.81,SSW,201,0.0,0.0,35,0.00,CLR,,0.00,WeatherDisplay:10.37,2013-03-25 13:50:00,
2013-03-25 07:00:00,48.3,21.2,29.82,SSW,201,0.0,0.0,34,0.00,CLR,,0.00,WeatherDisplay:10.37,2013-03-25 14:00:00,
2013-03-25 07:10:00,48.5,23.4,29.82,SSW,201,0.0,0.0,37,0.00,CLR,,0.00,WeatherDisplay:10.37,2013-03-25 14:10:00,
2013-03-25 07:20:00,48.5,22.7,29.82,SSW,201,0.0,0.0,36,0.00,CLR,,0.00,WeatherDisplay:10.37,2013-03-25 14:20:00,
2013-03-25 07:30:00,48.6,22.1,29.84,SSW,202,0.0,0.0,35,0.00,CLR,,0.00,WeatherDisplay:10.37,2013-03-25 14:30:00,
2013-03-25 07:40:00,48.6,23.5,29.84,SSW,201,0.0,0.0,37,0.00,CLR,,0.00,WeatherDisplay:10.37,2013-03-25 14:40:00,
2013-03-25 07:50:00,48.8,23.6,29.84,SSW,202,0.0,0.0,37,0.00,CLR,,0.00,WeatherDisplay:10.37,2013-03-25 14:50:00,
2013-03-25 08:00:00,49.3,22.8,29.85,SSW,201,0.0,0.0,35,0.00,CLR,,0.00,WeatherDisplay:10.37,2013-03-25 15:00:00,
2013-03-25 08:05:00,49.5,22.3,29.85,SSW,201,0.0,0.0,34,0.00,CLR,,0.00,WeatherDisplay:10.37,2013-03-25 15:05:00,
2013-03-25 08:10:00,49.9,22.6,29.85,SSW,201,0.0,0.0,34,0.00,CLR,,0.00,WeatherDisplay:10.37,2013-03-25 15:10:00,
2013-03-25 08:20:00,50.7,21.9,29.85,SSW,201,0.0,0.0,32,0.00,CLR,,0.00,WeatherDisplay:10.37,2013-03-25 15:20:00,
2013-03-25 08:30:00,51.7,21.2,29.86,SSW,201,0.0,0.0,30,0.00,CLR,,0.00,WeatherDisplay:10.37,2013-03-25 15:30:00,
2013-03-25 08:40:00,52.8,22.2,29.85,SSW,201,0.0,0.0,30,0.00,CLR,,0.00,WeatherDisplay:10.37,2013-03-25 15:40:00,
2013-03-25 08:50:00,53.9,19.7,29.85,SSW,201,0.0,0.0,26,0.00,CLR,,0.00,WeatherDisplay:10.37,2013-03-25 15:50:00,
2013-03-25 09:00:00,55.2,20.9,29.85,SSW,201,0.0,0.0,26,0.00,CLR,,0.00,WeatherDisplay:10.37,2013-03-25 16:00:00,
2013-03-25 09:05:00,56.0,19.6,29.86,SSW,201,0.0,0.0,24,0.00,CLR,,0.00,WeatherDisplay:10.37,2013-03-25 16:05:00,
2013-03-25 09:10:00,56.6,20.1,29.85,SSW,201,0.0,0.0,24,0.00,CLR,,0.00,WeatherDisplay:10.37,2013-03-25 16:10:00,
2013-03-25 09:20:00,57.2,20.7,29.85,SSW,201,0.0,0.0,24,0.00,CLR,,0.00,WeatherDisplay:10.37,2013-03-25 16:20:00,
2013-03-25 09:30:00,58.6,20.9,29.86,SSW,201,0.0,0.0,23,0.00,CLR,,0.00,WeatherDisplay:10.37,2013-03-25 16:30:00,
2013-03-25 09:40:00,59.7,20.7,29.85,SSW,202,0.0,0.0,22,0.00,CLR,,0.00,WeatherDisplay:10.37,2013-03-25 16:40:00,
2013-03-25 09:50:00,60.9,21.7,29.85,SSW,201,0.0,0.0,22,0.00,CLR,,0.00,WeatherDisplay:10.37,2013-03-25 16:50:00,
2013-03-25 16:50:00,77.9,16.9,29.68,SSW,196,10.0,18.0,10,0.00,CLR,,0.00,WeatherDisplay:10.37,2013-03-25 23:50:00,
2013-03-25 16:55:00,77.6,16.7,29.68,South,191,9.0,18.0,10,0.00,CLR,,0.00,WeatherDisplay:10.37,2013-03-25 23:55:00,
2013-03-25 17:00:00,77.4,18.7,29.68,SSW,194,10.0,18.0,11,0.00,CLR,,0.00,WeatherDisplay:10.37,2013-03-26 00:00:00,
2013-03-25 17:10:00,77.1,16.3,29.68,SSW,202,10.0,18.0,10,0.00,CLR,,0.00,WeatherDisplay:10.37,2013-03-26 00:10:00,
2013-03-25 17:15:00,77.6,16.7,29.67,SSW,203,8.0,16.0,10,0.00,CLR,,0.00,WeatherDisplay:10.37,2013-03-26 00:15:00,
2013-03-25 17:20:00,77.4,18.7,29.68,SSW,201,13.0,20.0,11,0.00,CLR,,0.00,WeatherDisplay:10.37,2013-03-26 00:20:00,
2013-03-25 17:25:00,77.0,18.4,29.68,SSW,201,13.0,16.0,11,0.00,CLR,,0.00,WeatherDisplay:10.37,2013-03-26 00:25:00,
2013-03-25 17:30:00,77.2,16.3,29.68,SSW,204,10.0,17.0,10,0.00,CLR,,0.00,WeatherDisplay:10.37,2013-03-26 00:30:00,
2013-03-25 17:35:00,77.2,16.4,29.67,SSW,194,13.0,20.0,10,0.00,CLR,,0.00,WeatherDisplay:10.37,2013-03-26 00:35:00,
2013-03-25 17:40:00,77.2,16.4,29.67,South,191,12.0,20.0,10,0.00,CLR,,0.00,WeatherDisplay:10.37,2013-03-26 00:40:00,
2013-03-25 17:45:00,77.0,11.1,29.67,SSW,200,12.0,16.0,8,0.00,CLR,,0.00,WeatherDisplay:10.37,2013-03-26 00:45:00,
2013-03-25 17:50:00,77.0,13.8,29.68,SSW,201,13.0,20.0,9,0.00,CLR,,0.00,WeatherDisplay:10.37,2013-03-26 00:50:00,
2013-03-25 18:00:00,76.7,13.6,29.67,SSW,208,10.0,15.0,9,0.00,CLR,,0.00,WeatherDisplay:10.37,2013-03-26 01:00:00,
2013-03-25 18:10:00,77.2,16.4,29.67,SSW,209,10.0,18.0,10,0.00,CLR,,0.00,WeatherDisplay:10.37,2013-03-26 01:10:00,
2013-03-25 18:15:00,77.0,13.8,29.67,SSW,205,10.0,14.0,9,0.00,CLR,,0.00,WeatherDisplay:10.37,2013-03-26 01:15:00,
2013-03-25 18:20:00,76.9,13.7,29.68,SSW,202,14.0,17.0,9,0.00,CLR,,0.00,WeatherDisplay:10.37,2013-03-26 01:20:00,
2013-03-25 18:25:00,76.5,13.4,29.67,SSW,196,13.0,17.0,9,0.00,CLR,,0.00,WeatherDisplay:10.37,2013-03-26 01:25:00,
2013-03-25 18:30:00,76.1,13.1,29.68,SSW,203,13.0,17.0,9,0.00,CLR,,0.00,WeatherDisplay:10.37,2013-03-26 01:30:00,
2013-03-25 18:40:00,75.3,12.5,29.68,SSW,212,12.0,16.0,9,0.00,CLR,,0.00,WeatherDisplay:10.37,2013-03-26 01:40:00,
2013-03-25 18:45:00,74.7,14.5,29.68,SSW,213,10.0,14.0,10,0.00,CLR,,0.00,WeatherDisplay:10.37,2013-03-26 01:45:00,
2013-03-25 18:50:00,74.2,11.7,29.69,SSW,213,10.0,14.0,9,0.00,CLR,,0.00,WeatherDisplay:10.37,2013-03-26 01:50:00,
2013-03-25 18:55:00,73.8,11.3,29.69,SW,218,9.0,13.0,9,0.00,CLR,,0.00,WeatherDisplay:10.37,2013-03-26 01:55:00,
2013-03-25 19:00:00,73.0,13.2,29.69,SW,228,9.0,12.0,10,0.00,CLR,,0.00,WeatherDisplay:10.37,2013-03-26 02:00:00,
2013-03-25 19:10:00,71.7,14.3,29.69,SW,235,10.0,12.0,11,0.00,CLR,,0.00,WeatherDisplay:10.37,2013-03-26 02:10:00,
2013-03-25 19:15:00,70.8,15.7,29.69,SW,236,8.0,12.0,12,0.00,CLR,,0.00,WeatherDisplay:10.37,2013-03-26 02:15:00,
2013-03-25 19:20:00,70.4,17.2,29.70,SW,225,7.0,12.0,13,0.00,CLR,,0.00,WeatherDisplay:10.37,2013-03-26 02:20:00,
2013-03-25 19:25:00,69.9,14.9,29.69,SSW,205,7.0,12.0,12,0.00,CLR,,0.00,WeatherDisplay:10.37,2013-03-26 02:25:00,
2013-03-25 19:30:00,69.4,16.3,29.69,SSW,201,7.0,12.0,13,0.00,CLR,,0.00,WeatherDisplay:10.37,2013-03-26 02:30:00,
2013-03-25 19:40:00,68.6,17.4,29.69,SSW,195,8.0,14.0,14,0.00,CLR,,0.00,WeatherDisplay:10.37,2013-03-26 02:40:00,
2013-03-25 19:50:00,68.0,18.6,29.69,South,191,9.0,15.0,15,0.00,CLR,,0.00,WeatherDisplay:10.37,2013-03-26 02:50:00,
2013-03-25 19:55:00,67.7,18.3,29.70,SSW,195,12.0,16.0,15,0.00,CLR,,0.00,WeatherDisplay:10.37,2013-03-26 02:55:00,
2013-03-25 20:00:00,67.1,19.4,29.70,SSW,200,10.0,15.0,16,0.00,CLR,,0.00,WeatherDisplay:10.37,2013-03-26 03:00:00,
2013-03-25 20:05:00,66.8,19.1,29.70,SSW,201,6.0,14.0,16,0.00,CLR,,0.00,WeatherDisplay:10.37,2013-03-26 03:05:00,
2013-03-25 20:10:00,66.4,20.2,29.71,SSW,199,7.0,12.0,17,0.00,CLR,,0.00,WeatherDisplay:10.37,2013-03-26 03:10:00,
2013-03-25 20:15:00,66.3,20.1,29.71,SSW,199,8.0,13.0,17,0.00,CLR,,0.00,WeatherDisplay:10.37,2013-03-26 03:15:00,
2013-03-25 20:20:00,66.1,20.0,29.71,SSW,207,10.0,14.0,17,0.00,CLR,,0.00,WeatherDisplay:10.37,2013-03-26 03:20:00,
2013-03-25 20:25:00,66.7,20.5,29.69,SSW,213,8.0,14.0,17,0.00,CLR,,0.00,WeatherDisplay:10.37,2013-03-26 03:25:00,
2013-03-25 20:30:00,66.4,20.2,29.69,SSW,205,2.0,13.0,17,0.00,CLR,,0.00,WeatherDisplay:10.37,2013-03-26 03:30:00,
2013-03-25 20:40:00,64.9,20.3,29.70,SSW,193,6.0,9.0,18,0.00,CLR,,0.00,WeatherDisplay:10.37,2013-03-26 03:40:00,
2013-03-25 20:45:00,64.3,18.5,29.70,SSW,201,7.0,10.0,17,0.00,CLR,,0.00,WeatherDisplay:10.37,2013-03-26 03:45:00,
2013-03-25 20:50:00,64.7,18.8,29.71,SSW,199,1.0,12.0,17,0.00,CLR,,0.00,WeatherDisplay:10.37,2013-03-26 03:50:00,
2013-03-25 21:00:00,64.2,19.8,29.71,South,183,0.0,2.0,18,0.00,CLR,,0.00,WeatherDisplay:10.37,2013-03-26 04:00:00,
2013-03-25 21:10:00,64.3,18.5,29.71,South,178,0.0,4.0,17,0.00,CLR,,0.00,WeatherDisplay:10.37,2013-03-26 04:10:00,
2013-03-25 21:15:00,65.2,19.2,29.72,South,178,3.0,5.0,17,0.00,CLR,,0.00,WeatherDisplay:10.37,2013-03-26 04:15:00,
2013-03-25 21:20:00,65.2,17.8,29.72,South,178,1.0,3.0,16,0.00,CLR,,0.00,WeatherDisplay:10.37,2013-03-26 04:20:00,
2013-03-25 21:25:00,64.7,18.8,29.71,SSE,162,3.0,7.0,17,0.00,CLR,,0.00,WeatherDisplay:10.37,2013-03-26 04:25:00,
2013-03-25 21:30:00,64.8,17.5,29.71,SSE,156,3.0,7.0,16,0.00,CLR,,0.00,WeatherDisplay:10.37,2013-03-26 04:30:00,
2013-03-25 21:35:00,64.6,17.3,29.71,SE,146,0.0,6.0,16,0.00,CLR,,0.00,WeatherDisplay:10.37,2013-03-26 04:35:00,
2013-03-25 21:40:00,64.7,17.4,29.71,SSE,152,2.0,10.0,16,0.00,CLR,,0.00,WeatherDisplay:10.37,2013-03-26 04:40:00,
2013-03-25 21:45:00,64.8,17.5,29.71,South,179,3.0,12.0,16,0.00,CLR,,0.00,WeatherDisplay:10.37,2013-03-26 04:45:00,
2013-03-25 21:50:00,66.1,15.4,29.71,SSW,197,1.0,6.0,14,0.00,CLR,,0.00,WeatherDisplay:10.37,2013-03-26 04:50:00,
2013-03-25 21:55:00,66.3,17.2,29.71,SW,229,1.0,4.0,15,0.00,CLR,,0.00,WeatherDisplay:10.37,2013-03-26 04:55:00,
2013-03-25 22:00:00,65.6,16.6,29.71,South,185,3.0,5.0,15,0.00,CLR,,0.00,WeatherDisplay:10.37,2013-03-26 05:00:00,
2013-03-25 22:05:00,64.8,16.0,29.72,SE,140,3.0,7.0,15,0.00,CLR,,0.00,WeatherDisplay:10.37,2013-03-26 05:05:00,
2013-03-25 22:10:00,64.0,15.4,29.72,SE,134,5.0,6.0,15,0.00,CLR,,0.00,WeatherDisplay:10.37,2013-03-26 05:10:00,
2013-03-25 22:15:00,63.4,13.3,29.72,SE,137,1.0,9.0,14,0.00,CLR,,0.00,WeatherDisplay:10.37,2013-03-26 05:15:00,
2013-03-25 22:20:00,63.4,11.6,29.72,SSE,164,3.0,8.0,13,0.00,CLR,,0.00,WeatherDisplay:10.37,2013-03-26 05:20:00,
2013-03-25 22:25:00,63.4,11.6,29.71,South,173,2.0,7.0,13,0.00,CLR,,0.00,WeatherDisplay:10.37,2013-03-26 05:25:00,
2013-03-25 22:30:00,63.2,11.5,29.71,SSE,151,1.0,7.0,13,0.00,CLR,,0.00,WeatherDisplay:10.37,2013-03-26 05:30:00,
2013-03-25 22:35:00,63.1,11.4,29.71,South,179,2.0,10.0,13,0.00,CLR,,0.00,WeatherDisplay:10.37,2013-03-26 05:35:00,
2013-03-25 22:40:00,63.1,11.4,29.71,South,180,6.0,12.0,13,0.00,CLR,,0.00,WeatherDisplay:10.37,2013-03-26 05:40:00,
2013-03-25 22:45:00,63.2,11.5,29.71,South,174,5.0,12.0,13,0.00,CLR,,0.00,WeatherDisplay:10.37,2013-03-26 05:45:00,
2013-03-25 22:50:00,63.1,11.4,29.71,South,177,5.0,15.0,13,0.00,CLR,,0.00,WeatherDisplay:10.37,2013-03-26 05:50:00,
2013-03-25 22:55:00,63.1,9.6,29.71,South,179,5.0,13.0,12,0.00,CLR,,0.00,WeatherDisplay:10.37,2013-03-26 05:55:00,
2013-03-25 23:00:00,62.9,11.2,29.71,South,169,7.0,15.0,13,0.00,CLR,,0.00,WeatherDisplay:10.37,2013-03-26 06:00:00,
2013-03-25 23:10:00,62.9,11.2,29.71,South,183,8.0,13.0,13,0.00,CLR,,0.00,WeatherDisplay:10.37,2013-03-26 06:10:00,
2013-03-25 23:15:00,62.7,11.1,29.71,South,177,5.0,12.0,13,0.00,CLR,,0.00,WeatherDisplay:10.37,2013-03-26 06:15:00,
2013-03-25 23:20:00,62.6,11.0,29.71,South,178,6.0,17.0,13,0.00,CLR,,0.00,WeatherDisplay:10.37,2013-03-26 06:20:00,
2013-03-25 23:25:00,62.6,11.0,29.70,South,186,8.0,12.0,13,0.00,CLR,,0.00,WeatherDisplay:10.37,2013-03-26 06:25:00,
2013-03-25 23:30:00,62.2,8.9,29.70,SSW,196,10.0,20.0,12,0.00,CLR,,0.00,WeatherDisplay:10.37,2013-03-26 06:30:00,
2013-03-25 23:35:00,62.0,10.5,29.70,South,188,6.0,14.0,13,0.00,CLR,,0.00,WeatherDisplay:10.37,2013-03-26 06:35:00,
2013-03-25 23:40:00,61.8,10.4,29.70,South,186,8.0,14.0,13,0.00,CLR,,0.00,WeatherDisplay:10.37,2013-03-26 06:40:00,
2013-03-25 23:45:00,61.8,8.6,29.70,South,188,7.0,14.0,12,0.00,CLR,,0.00,WeatherDisplay:10.37,2013-03-26 06:45:00,
2013-03-25 23:50:00,62.0,8.8,29.70,SSW,192,12.0,17.0,12,0.00,CLR,,0.00,WeatherDisplay:10.37,2013-03-26 06:50:00,
2013-03-25 23:55:00,62.3,9.0,29.71,SSW,192,5.0,15.0,12,0.00,CLR,,0.00,WeatherDisplay:10.37,2013-03-26 06:55:00,